sensor_id;sensor_type;location;lat;lon;timestamp;pressure;altitude;pressure_sealevel;temperature
63588;BMP280;49966;46.896;18.004;2023-07-13T00:01:23;100214.63;;;24.74
63588;BMP280;49966;46.896;18.004;2023-07-13T00:03:51;100208.25;;;24.68
63588;BMP280;49966;46.896;18.004;2023-07-13T00:06:19;100206.47;;;24.65
63588;BMP280;49966;46.896;18.004;2023-07-13T00:08:48;100190.00;;;24.59
63588;BMP280;49966;46.896;18.004;2023-07-13T00:11:17;100198.44;;;24.52
63588;BMP280;49966;46.896;18.004;2023-07-13T00:13:46;100180.78;;;24.48
63588;BMP280;49966;46.896;18.004;2023-07-13T00:16:15;100184.41;;;24.45
63588;BMP280;49966;46.896;18.004;2023-07-13T00:18:43;100172.06;;;24.44
63588;BMP280;49966;46.896;18.004;2023-07-13T00:21:12;100191.44;;;24.42
63588;BMP280;49966;46.896;18.004;2023-07-13T00:23:41;100166.75;;;24.40
63588;BMP280;49966;46.896;18.004;2023-07-13T00:26:11;100177.59;;;24.40
63588;BMP280;49966;46.896;18.004;2023-07-13T00:28:40;100168.84;;;24.36
63588;BMP280;49966;46.896;18.004;2023-07-13T00:31:12;100170.94;;;24.32
63588;BMP280;49966;46.896;18.004;2023-07-13T00:33:41;100168.50;;;24.25
63588;BMP280;49966;46.896;18.004;2023-07-13T00:36:10;100158.06;;;24.14
63588;BMP280;49966;46.896;18.004;2023-07-13T00:38:39;100148.53;;;24.09
63588;BMP280;49966;46.896;18.004;2023-07-13T00:41:07;100155.47;;;24.01
63588;BMP280;49966;46.896;18.004;2023-07-13T00:43:35;100157.34;;;23.92
63588;BMP280;49966;46.896;18.004;2023-07-13T00:46:20;100154.59;;;23.82
63588;BMP280;49966;46.896;18.004;2023-07-13T00:48:50;100162.66;;;23.73
63588;BMP280;49966;46.896;18.004;2023-07-13T00:51:23;100167.13;;;23.67
63588;BMP280;49966;46.896;18.004;2023-07-13T00:53:53;100139.25;;;23.58
63588;BMP280;49966;46.896;18.004;2023-07-13T00:56:23;100129.22;;;23.45
63588;BMP280;49966;46.896;18.004;2023-07-13T00:58:52;100119.06;;;23.37
63588;BMP280;49966;46.896;18.004;2023-07-13T01:01:22;100106.13;;;23.32
63588;BMP280;49966;46.896;18.004;2023-07-13T01:03:50;100105.66;;;23.33
63588;BMP280;49966;46.896;18.004;2023-07-13T01:06:19;100106.63;;;23.39
63588;BMP280;49966;46.896;18.004;2023-07-13T01:08:47;100099.25;;;23.40
63588;BMP280;49966;46.896;18.004;2023-07-13T01:11:18;100090.50;;;23.36
63588;BMP280;49966;46.896;18.004;2023-07-13T01:13:48;100098.00;;;23.32
63588;BMP280;49966;46.896;18.004;2023-07-13T01:16:22;100085.81;;;23.27
63588;BMP280;49966;46.896;18.004;2023-07-13T01:18:53;100067.53;;;23.18
63588;BMP280;49966;46.896;18.004;2023-07-13T01:21:22;100072.00;;;23.12
63588;BMP280;49966;46.896;18.004;2023-07-13T01:23:51;100079.47;;;23.08
63588;BMP280;49966;46.896;18.004;2023-07-13T01:26:19;100062.91;;;23.06
63588;BMP280;49966;46.896;18.004;2023-07-13T01:28:48;100070.19;;;23.09
63588;BMP280;49966;46.896;18.004;2023-07-13T01:31:16;100065.63;;;23.06
63588;BMP280;49966;46.896;18.004;2023-07-13T01:33:45;100070.41;;;23.02
63588;BMP280;49966;46.896;18.004;2023-07-13T01:36:13;100064.34;;;22.98
63588;BMP280;49966;46.896;18.004;2023-07-13T01:38:42;100061.88;;;22.91
63588;BMP280;49966;46.896;18.004;2023-07-13T01:41:11;100051.63;;;22.86
63588;BMP280;49966;46.896;18.004;2023-07-13T01:43:40;100046.03;;;22.80
63588;BMP280;49966;46.896;18.004;2023-07-13T01:46:08;100032.63;;;22.77
63588;BMP280;49966;46.896;18.004;2023-07-13T01:48:50;100033.75;;;22.66
63588;BMP280;49966;46.896;18.004;2023-07-13T01:51:20;100033.84;;;22.63
63588;BMP280;49966;46.896;18.004;2023-07-13T01:53:50;100028.13;;;22.61
63588;BMP280;49966;46.896;18.004;2023-07-13T01:56:18;100032.75;;;22.60
63588;BMP280;49966;46.896;18.004;2023-07-13T01:58:47;100035.47;;;22.60
63588;BMP280;49966;46.896;18.004;2023-07-13T02:01:15;100053.44;;;22.54
63588;BMP280;49966;46.896;18.004;2023-07-13T02:03:44;100046.22;;;22.51
63588;BMP280;49966;46.896;18.004;2023-07-13T02:06:13;100028.59;;;22.47
63588;BMP280;49966;46.896;18.004;2023-07-13T02:08:41;100027.84;;;22.46
63588;BMP280;49966;46.896;18.004;2023-07-13T02:11:11;100023.41;;;22.39
63588;BMP280;49966;46.896;18.004;2023-07-13T02:13:40;100032.41;;;22.36
63588;BMP280;49966;46.896;18.004;2023-07-13T02:16:08;100043.00;;;22.31
63588;BMP280;49966;46.896;18.004;2023-07-13T02:18:37;100031.13;;;22.28
63588;BMP280;49966;46.896;18.004;2023-07-13T02:21:05;100027.63;;;22.28
63588;BMP280;49966;46.896;18.004;2023-07-13T02:23:34;100048.94;;;22.26
63588;BMP280;49966;46.896;18.004;2023-07-13T02:26:03;100033.69;;;22.19
63588;BMP280;49966;46.896;18.004;2023-07-13T02:28:33;100035.75;;;22.15
63588;BMP280;49966;46.896;18.004;2023-07-13T02:31:05;100041.16;;;22.15
63588;BMP280;49966;46.896;18.004;2023-07-13T02:33:34;100039.97;;;22.16
63588;BMP280;49966;46.896;18.004;2023-07-13T02:36:02;100038.44;;;22.15
63588;BMP280;49966;46.896;18.004;2023-07-13T02:38:32;100041.25;;;22.11
63588;BMP280;49966;46.896;18.004;2023-07-13T02:41:01;100029.28;;;22.12
63588;BMP280;49966;46.896;18.004;2023-07-13T02:43:30;100052.91;;;22.21
63588;BMP280;49966;46.896;18.004;2023-07-13T02:46:00;100065.34;;;22.19
63588;BMP280;49966;46.896;18.004;2023-07-13T02:48:35;100068.06;;;22.19
63588;BMP280;49966;46.896;18.004;2023-07-13T02:51:03;100054.91;;;22.21
63588;BMP280;49966;46.896;18.004;2023-07-13T02:53:31;100055.97;;;22.23
63588;BMP280;49966;46.896;18.004;2023-07-13T02:56:00;100068.94;;;22.28
63588;BMP280;49966;46.896;18.004;2023-07-13T02:58:28;100061.91;;;22.31
63588;BMP280;49966;46.896;18.004;2023-07-13T03:00:56;100064.34;;;22.38
63588;BMP280;49966;46.896;18.004;2023-07-13T03:03:26;100049.34;;;22.37
63588;BMP280;49966;46.896;18.004;2023-07-13T03:05:59;100039.09;;;22.32
63588;BMP280;49966;46.896;18.004;2023-07-13T03:08:29;100042.69;;;22.29
63588;BMP280;49966;46.896;18.004;2023-07-13T03:11:00;100038.00;;;22.29
63588;BMP280;49966;46.896;18.004;2023-07-13T03:13:28;100072.72;;;22.31
63588;BMP280;49966;46.896;18.004;2023-07-13T03:15:57;100076.38;;;22.24
63588;BMP280;49966;46.896;18.004;2023-07-13T03:18:27;100069.47;;;22.23
63588;BMP280;49966;46.896;18.004;2023-07-13T03:20:56;100056.06;;;22.20
63588;BMP280;49966;46.896;18.004;2023-07-13T03:23:24;100075.16;;;22.25
63588;BMP280;49966;46.896;18.004;2023-07-13T03:26:01;100064.28;;;22.29
63588;BMP280;49966;46.896;18.004;2023-07-13T03:28:31;100078.53;;;22.29
63588;BMP280;49966;46.896;18.004;2023-07-13T03:31:01;100080.81;;;22.31
63588;BMP280;49966;46.896;18.004;2023-07-13T03:33:31;100096.59;;;22.32
63588;BMP280;49966;46.896;18.004;2023-07-13T03:35:59;100126.06;;;22.27
63588;BMP280;49966;46.896;18.004;2023-07-13T03:38:27;100161.94;;;22.27
63588;BMP280;49966;46.896;18.004;2023-07-13T03:40:56;100189.72;;;22.28
63588;BMP280;49966;46.896;18.004;2023-07-13T03:43:24;100193.22;;;22.28
63588;BMP280;49966;46.896;18.004;2023-07-13T03:45:52;100207.34;;;22.32
63588;BMP280;49966;46.896;18.004;2023-07-13T03:48:20;100221.19;;;22.34
63588;BMP280;49966;46.896;18.004;2023-07-13T03:50:50;100252.84;;;22.34
63588;BMP280;49966;46.896;18.004;2023-07-13T03:53:18;100301.88;;;22.20
63588;BMP280;49966;46.896;18.004;2023-07-13T03:55:46;100320.53;;;22.14
63588;BMP280;49966;46.896;18.004;2023-07-13T03:58:45;100388.72;;;22.18
63588;BMP280;49966;46.896;18.004;2023-07-13T04:01:15;100358.28;;;21.52
63588;BMP280;49966;46.896;18.004;2023-07-13T04:03:44;100398.94;;;21.25
63588;BMP280;49966;46.896;18.004;2023-07-13T04:06:19;100411.13;;;20.94
63588;BMP280;49966;46.896;18.004;2023-07-13T04:08:49;100396.19;;;20.89
63588;BMP280;49966;46.896;18.004;2023-07-13T04:11:19;100380.28;;;20.75
63588;BMP280;49966;46.896;18.004;2023-07-13T04:13:48;100347.09;;;20.58
63588;BMP280;49966;46.896;18.004;2023-07-13T04:16:17;100264.19;;;20.66
63588;BMP280;49966;46.896;18.004;2023-07-13T04:18:46;100166.22;;;20.92
63588;BMP280;49966;46.896;18.004;2023-07-13T04:21:17;100182.38;;;20.92
63588;BMP280;49966;46.896;18.004;2023-07-13T04:23:45;100152.25;;;20.97
63588;BMP280;49966;46.896;18.004;2023-07-13T04:26:13;100122.31;;;20.92
63588;BMP280;49966;46.896;18.004;2023-07-13T04:28:41;100093.50;;;20.89
63588;BMP280;49966;46.896;18.004;2023-07-13T04:31:10;100087.84;;;20.83
63588;BMP280;49966;46.896;18.004;2023-07-13T04:33:38;100095.03;;;20.90
63588;BMP280;49966;46.896;18.004;2023-07-13T04:36:06;100076.50;;;20.92
63588;BMP280;49966;46.896;18.004;2023-07-13T04:38:38;100118.34;;;21.13
63588;BMP280;49966;46.896;18.004;2023-07-13T04:41:08;100170.84;;;21.08
63588;BMP280;49966;46.896;18.004;2023-07-13T04:43:36;100229.75;;;21.10
63588;BMP280;49966;46.896;18.004;2023-07-13T04:46:06;100273.94;;;20.96
63588;BMP280;49966;46.896;18.004;2023-07-13T04:48:35;100278.03;;;21.04
63588;BMP280;49966;46.896;18.004;2023-07-13T04:51:04;100248.47;;;21.17
63588;BMP280;49966;46.896;18.004;2023-07-13T04:53:32;100314.19;;;21.06
63588;BMP280;49966;46.896;18.004;2023-07-13T04:56:03;100218.38;;;21.18
63588;BMP280;49966;46.896;18.004;2023-07-13T04:58:33;100158.72;;;21.16
63588;BMP280;49966;46.896;18.004;2023-07-13T05:01:02;100074.13;;;21.10
63588;BMP280;49966;46.896;18.004;2023-07-13T05:03:31;99906.81;;;21.01
63588;BMP280;49966;46.896;18.004;2023-07-13T05:06:02;99896.50;;;20.99
63588;BMP280;49966;46.896;18.004;2023-07-13T05:08:30;99886.88;;;20.98
63588;BMP280;49966;46.896;18.004;2023-07-13T05:10:59;99710.78;;;20.89
63588;BMP280;49966;46.896;18.004;2023-07-13T05:13:29;99605.28;;;20.65
63588;BMP280;49966;46.896;18.004;2023-07-13T05:15:59;99509.59;;;20.60
63588;BMP280;49966;46.896;18.004;2023-07-13T05:18:27;99390.41;;;20.69
63588;BMP280;49966;46.896;18.004;2023-07-13T05:21:00;99402.81;;;20.66
63588;BMP280;49966;46.896;18.004;2023-07-13T05:23:30;99364.84;;;20.73
63588;BMP280;49966;46.896;18.004;2023-07-13T05:25:59;99344.97;;;20.80
63588;BMP280;49966;46.896;18.004;2023-07-13T05:28:30;99407.69;;;20.80
63588;BMP280;49966;46.896;18.004;2023-07-13T05:30:59;99516.13;;;20.85
63588;BMP280;49966;46.896;18.004;2023-07-13T05:33:28;99538.75;;;20.87
63588;BMP280;49966;46.896;18.004;2023-07-13T05:35:56;99585.97;;;20.92
63588;BMP280;49966;46.896;18.004;2023-07-13T05:38:25;99576.56;;;20.96
63588;BMP280;49966;46.896;18.004;2023-07-13T05:40:54;99537.88;;;20.90
63588;BMP280;49966;46.896;18.004;2023-07-13T05:46:42;99535.34;;;21.08
63588;BMP280;49966;46.896;18.004;2023-07-13T05:49:10;99598.22;;;21.05
63588;BMP280;49966;46.896;18.004;2023-07-13T05:51:39;99645.84;;;21.21
63588;BMP280;49966;46.896;18.004;2023-07-13T05:54:07;99664.59;;;21.38
63588;BMP280;49966;46.896;18.004;2023-07-13T05:56:35;99677.09;;;21.44
63588;BMP280;49966;46.896;18.004;2023-07-13T05:59:04;99664.94;;;21.61
63588;BMP280;49966;46.896;18.004;2023-07-13T06:01:32;99702.16;;;21.67
63588;BMP280;49966;46.896;18.004;2023-07-13T06:04:02;99646.97;;;21.80
63588;BMP280;49966;46.896;18.004;2023-07-13T06:06:30;99640.75;;;21.93
63588;BMP280;49966;46.896;18.004;2023-07-13T06:08:58;99716.13;;;21.87
63588;BMP280;49966;46.896;18.004;2023-07-13T06:11:27;99698.56;;;22.04
63588;BMP280;49966;46.896;18.004;2023-07-13T06:13:57;99728.66;;;22.15
63588;BMP280;49966;46.896;18.004;2023-07-13T06:16:28;99819.84;;;22.55
63588;BMP280;49966;46.896;18.004;2023-07-13T06:23:07;100009.97;;;23.71
63588;BMP280;49966;46.896;18.004;2023-07-13T06:25:39;100052.06;;;24.03
63588;BMP280;49966;46.896;18.004;2023-07-13T06:28:08;100065.66;;;24.21
63588;BMP280;49966;46.896;18.004;2023-07-13T06:30:38;100076.25;;;24.37
63588;BMP280;49966;46.896;18.004;2023-07-13T06:33:06;100122.94;;;24.41
63588;BMP280;49966;46.896;18.004;2023-07-13T06:35:34;100142.50;;;24.36
63588;BMP280;49966;46.896;18.004;2023-07-13T06:38:03;100124.34;;;24.15
63588;BMP280;49966;46.896;18.004;2023-07-13T06:40:33;100104.41;;;23.91
63588;BMP280;49966;46.896;18.004;2023-07-13T06:43:01;100105.88;;;23.61
63588;BMP280;49966;46.896;18.004;2023-07-13T06:45:30;100066.09;;;23.48
63588;BMP280;49966;46.896;18.004;2023-07-13T06:47:58;100071.19;;;23.24
63588;BMP280;49966;46.896;18.004;2023-07-13T06:50:26;100054.41;;;23.30
63588;BMP280;49966;46.896;18.004;2023-07-13T06:52:55;100036.25;;;23.17
63588;BMP280;49966;46.896;18.004;2023-07-13T06:55:23;100029.59;;;23.31
63588;BMP280;49966;46.896;18.004;2023-07-13T06:57:53;100027.88;;;23.46
63588;BMP280;49966;46.896;18.004;2023-07-13T07:00:21;100060.03;;;23.44
63588;BMP280;49966;46.896;18.004;2023-07-13T07:02:50;100035.44;;;23.30
63588;BMP280;49966;46.896;18.004;2023-07-13T07:05:18;100019.03;;;23.24
63588;BMP280;49966;46.896;18.004;2023-07-13T07:07:49;99985.19;;;23.19
63588;BMP280;49966;46.896;18.004;2023-07-13T07:10:18;100020.50;;;23.47
63588;BMP280;49966;46.896;18.004;2023-07-13T07:12:46;100144.84;;;23.63
63588;BMP280;49966;46.896;18.004;2023-07-13T07:15:17;100214.41;;;24.19
63588;BMP280;49966;46.896;18.004;2023-07-13T07:17:46;100255.56;;;24.67
63588;BMP280;49966;46.896;18.004;2023-07-13T07:20:15;100276.09;;;24.77
63588;BMP280;49966;46.896;18.004;2023-07-13T07:22:44;100328.56;;;24.83
63588;BMP280;49966;46.896;18.004;2023-07-13T07:25:12;100325.09;;;24.83
63588;BMP280;49966;46.896;18.004;2023-07-13T07:27:40;100318.88;;;25.13
63588;BMP280;49966;46.896;18.004;2023-07-13T07:30:12;100313.84;;;24.93
63588;BMP280;49966;46.896;18.004;2023-07-13T07:32:50;100321.38;;;24.89
63588;BMP280;49966;46.896;18.004;2023-07-13T07:35:24;100317.69;;;24.74
63588;BMP280;49966;46.896;18.004;2023-07-13T07:38:13;100324.25;;;24.95
63588;BMP280;49966;46.896;18.004;2023-07-13T07:40:41;100329.31;;;25.24
63588;BMP280;49966;46.896;18.004;2023-07-13T07:43:12;100342.50;;;25.53
63588;BMP280;49966;46.896;18.004;2023-07-13T07:45:40;100322.75;;;25.52
63588;BMP280;49966;46.896;18.004;2023-07-13T07:48:10;100334.06;;;25.60
63588;BMP280;49966;46.896;18.004;2023-07-13T07:50:39;100333.75;;;25.58
63588;BMP280;49966;46.896;18.004;2023-07-13T07:53:07;100324.25;;;25.63
63588;BMP280;49966;46.896;18.004;2023-07-13T07:55:40;100324.38;;;25.41
63588;BMP280;49966;46.896;18.004;2023-07-13T07:58:28;100339.00;;;25.43
63588;BMP280;49966;46.896;18.004;2023-07-13T08:01:03;100351.03;;;25.33
63588;BMP280;49966;46.896;18.004;2023-07-13T08:03:37;100351.13;;;25.11
63588;BMP280;49966;46.896;18.004;2023-07-13T08:06:08;100359.72;;;25.10
63588;BMP280;49966;46.896;18.004;2023-07-13T08:08:56;100349.69;;;25.29
63588;BMP280;49966;46.896;18.004;2023-07-13T08:11:24;100360.00;;;25.70
63588;BMP280;49966;46.896;18.004;2023-07-13T08:13:56;100354.72;;;25.94
63588;BMP280;49966;46.896;18.004;2023-07-13T08:16:26;100367.59;;;25.94
63588;BMP280;49966;46.896;18.004;2023-07-13T08:18:56;100364.38;;;26.04
63588;BMP280;49966;46.896;18.004;2023-07-13T08:21:24;100374.97;;;26.11
63588;BMP280;49966;46.896;18.004;2023-07-13T08:23:52;100368.47;;;26.18
63588;BMP280;49966;46.896;18.004;2023-07-13T08:26:21;100376.13;;;26.56
63588;BMP280;49966;46.896;18.004;2023-07-13T08:28:49;100365.28;;;26.20
63588;BMP280;49966;46.896;18.004;2023-07-13T08:31:17;100363.31;;;26.38
63588;BMP280;49966;46.896;18.004;2023-07-13T08:33:46;100365.06;;;26.60
63588;BMP280;49966;46.896;18.004;2023-07-13T08:36:15;100366.81;;;26.11
63588;BMP280;49966;46.896;18.004;2023-07-13T08:38:44;100369.84;;;26.23
63588;BMP280;49966;46.896;18.004;2023-07-13T08:41:17;100377.47;;;26.61
63588;BMP280;49966;46.896;18.004;2023-07-13T08:43:49;100387.81;;;26.81
63588;BMP280;49966;46.896;18.004;2023-07-13T08:46:23;100383.16;;;26.72
63588;BMP280;49966;46.896;18.004;2023-07-13T08:48:57;100375.81;;;26.54
63588;BMP280;49966;46.896;18.004;2023-07-13T08:51:45;100382.63;;;26.50
63588;BMP280;49966;46.896;18.004;2023-07-13T08:54:22;100374.84;;;26.76
63588;BMP280;49966;46.896;18.004;2023-07-13T08:56:52;100378.09;;;26.37
63588;BMP280;49966;46.896;18.004;2023-07-13T08:59:25;100378.13;;;26.10
63588;BMP280;49966;46.896;18.004;2023-07-13T09:02:10;100373.47;;;26.01
63588;BMP280;49966;46.896;18.004;2023-07-13T09:04:48;100358.19;;;25.95
63588;BMP280;49966;46.896;18.004;2023-07-13T09:07:28;100380.25;;;25.88
63588;BMP280;49966;46.896;18.004;2023-07-13T09:10:05;100365.91;;;25.78
63588;BMP280;49966;46.896;18.004;2023-07-13T09:12:43;100351.28;;;25.66
63588;BMP280;49966;46.896;18.004;2023-07-13T09:15:22;100356.56;;;25.70
63588;BMP280;49966;46.896;18.004;2023-07-13T09:17:55;100365.00;;;25.72
63588;BMP280;49966;46.896;18.004;2023-07-13T09:20:30;100351.28;;;25.66
63588;BMP280;49966;46.896;18.004;2023-07-13T09:23:05;100356.84;;;25.72
63588;BMP280;49966;46.896;18.004;2023-07-13T09:25:38;100353.06;;;25.69
63588;BMP280;49966;46.896;18.004;2023-07-13T09:28:12;100375.56;;;25.79
63588;BMP280;49966;46.896;18.004;2023-07-13T09:30:50;100372.41;;;26.08
63588;BMP280;49966;46.896;18.004;2023-07-13T09:33:21;100377.03;;;26.44
63588;BMP280;49966;46.896;18.004;2023-07-13T09:35:49;100356.94;;;26.51
63588;BMP280;49966;46.896;18.004;2023-07-13T09:38:22;100366.88;;;26.54
63588;BMP280;49966;46.896;18.004;2023-07-13T09:41:14;100366.88;;;26.96
63588;BMP280;49966;46.896;18.004;2023-07-13T09:44:02;100365.78;;;27.12
63588;BMP280;49966;46.896;18.004;2023-07-13T09:46:30;100362.41;;;27.17
63588;BMP280;49966;46.896;18.004;2023-07-13T09:48:58;100375.91;;;27.35
63588;BMP280;49966;46.896;18.004;2023-07-13T09:51:27;100378.91;;;27.61
63588;BMP280;49966;46.896;18.004;2023-07-13T09:53:56;100374.44;;;27.73
63588;BMP280;49966;46.896;18.004;2023-07-13T09:56:28;100376.63;;;27.83
63588;BMP280;49966;46.896;18.004;2023-07-13T09:58:57;100392.44;;;28.09
63588;BMP280;49966;46.896;18.004;2023-07-13T10:01:33;100385.28;;;28.26
63588;BMP280;49966;46.896;18.004;2023-07-13T10:04:02;100382.88;;;28.43
63588;BMP280;49966;46.896;18.004;2023-07-13T10:06:38;100381.34;;;28.42
63588;BMP280;49966;46.896;18.004;2023-07-13T10:09:09;100371.00;;;28.46
63588;BMP280;49966;46.896;18.004;2023-07-13T10:11:39;100377.22;;;28.46
63588;BMP280;49966;46.896;18.004;2023-07-13T10:14:13;100375.81;;;28.36
63588;BMP280;49966;46.896;18.004;2023-07-13T10:16:43;100374.94;;;28.45
63588;BMP280;49966;46.896;18.004;2023-07-13T10:19:15;100379.84;;;28.56
63588;BMP280;49966;46.896;18.004;2023-07-13T10:21:50;100363.34;;;28.50
63588;BMP280;49966;46.896;18.004;2023-07-13T10:24:25;100376.25;;;28.64
63588;BMP280;49966;46.896;18.004;2023-07-13T10:26:57;100376.16;;;28.59
63588;BMP280;49966;46.896;18.004;2023-07-13T10:29:27;100372.91;;;28.75
63588;BMP280;49966;46.896;18.004;2023-07-13T10:31:57;100370.00;;;28.78
63588;BMP280;49966;46.896;18.004;2023-07-13T10:34:34;100365.09;;;28.83
63588;BMP280;49966;46.896;18.004;2023-07-13T10:37:05;100360.09;;;28.81
63588;BMP280;49966;46.896;18.004;2023-07-13T10:39:37;100365.03;;;28.77
63588;BMP280;49966;46.896;18.004;2023-07-13T10:42:09;100366.94;;;28.71
63588;BMP280;49966;46.896;18.004;2023-07-13T10:44:42;100359.63;;;28.83
63588;BMP280;49966;46.896;18.004;2023-07-13T10:47:14;100357.47;;;28.72
63588;BMP280;49966;46.896;18.004;2023-07-13T10:49:44;100353.66;;;28.99
63588;BMP280;49966;46.896;18.004;2023-07-13T10:52:43;100340.28;;;29.01
63588;BMP280;49966;46.896;18.004;2023-07-13T10:55:35;100326.69;;;29.27
63588;BMP280;49966;46.896;18.004;2023-07-13T10:58:18;100341.94;;;29.59
63588;BMP280;49966;46.896;18.004;2023-07-13T11:00:49;100332.94;;;29.33
63588;BMP280;49966;46.896;18.004;2023-07-13T11:03:20;100349.72;;;29.46
63588;BMP280;49966;46.896;18.004;2023-07-13T11:05:51;100353.22;;;29.47
63588;BMP280;49966;46.896;18.004;2023-07-13T11:08:35;100343.94;;;29.38
63588;BMP280;49966;46.896;18.004;2023-07-13T11:11:33;100337.03;;;29.23
63588;BMP280;49966;46.896;18.004;2023-07-13T11:14:04;100344.19;;;29.40
63588;BMP280;49966;46.896;18.004;2023-07-13T11:16:37;100343.44;;;29.60
63588;BMP280;49966;46.896;18.004;2023-07-13T11:19:38;100357.47;;;29.74
63588;BMP280;49966;46.896;18.004;2023-07-13T11:22:13;100356.78;;;29.79
63588;BMP280;49966;46.896;18.004;2023-07-13T11:24:56;100356.22;;;29.95
63588;BMP280;49966;46.896;18.004;2023-07-13T11:27:36;100358.22;;;30.00
63588;BMP280;49966;46.896;18.004;2023-07-13T11:32:44;100366.16;;;29.98
63588;BMP280;49966;46.896;18.004;2023-07-13T11:35:23;100363.75;;;29.80
63588;BMP280;49966;46.896;18.004;2023-07-13T11:37:54;100365.75;;;29.79
63588;BMP280;49966;46.896;18.004;2023-07-13T11:40:24;100376.06;;;29.69
63588;BMP280;49966;46.896;18.004;2023-07-13T11:43:00;100361.78;;;29.54
63588;BMP280;49966;46.896;18.004;2023-07-13T11:45:30;100364.91;;;29.47
63588;BMP280;49966;46.896;18.004;2023-07-13T11:48:21;100358.28;;;29.33
63588;BMP280;49966;46.896;18.004;2023-07-13T11:50:53;100360.88;;;29.22
63588;BMP280;49966;46.896;18.004;2023-07-13T11:53:25;100358.03;;;29.11
63588;BMP280;49966;46.896;18.004;2023-07-13T11:55:54;100356.09;;;29.37
63588;BMP280;49966;46.896;18.004;2023-07-13T11:58:25;100359.06;;;29.34
63588;BMP280;49966;46.896;18.004;2023-07-13T12:00:58;100359.72;;;29.29
63588;BMP280;49966;46.896;18.004;2023-07-13T12:03:28;100351.25;;;29.47
63588;BMP280;49966;46.896;18.004;2023-07-13T12:06:02;100358.53;;;29.56
63588;BMP280;49966;46.896;18.004;2023-07-13T12:08:38;100375.09;;;29.73
63588;BMP280;49966;46.896;18.004;2023-07-13T12:11:15;100394.94;;;29.93
63588;BMP280;49966;46.896;18.004;2023-07-13T12:13:46;100375.06;;;29.93
63588;BMP280;49966;46.896;18.004;2023-07-13T12:16:20;100377.31;;;30.20
63588;BMP280;49966;46.896;18.004;2023-07-13T12:18:52;100376.72;;;30.11
63588;BMP280;49966;46.896;18.004;2023-07-13T12:21:26;100368.53;;;30.48
63588;BMP280;49966;46.896;18.004;2023-07-13T12:23:55;100377.25;;;30.52
63588;BMP280;49966;46.896;18.004;2023-07-13T12:26:24;100374.38;;;30.29
63588;BMP280;49966;46.896;18.004;2023-07-13T12:28:55;100374.56;;;30.20
63588;BMP280;49966;46.896;18.004;2023-07-13T12:31:29;100348.47;;;30.25
63588;BMP280;49966;46.896;18.004;2023-07-13T12:34:01;100345.31;;;30.00
63588;BMP280;49966;46.896;18.004;2023-07-13T12:36:33;100337.94;;;30.12
63588;BMP280;49966;46.896;18.004;2023-07-13T12:39:12;100340.84;;;30.03
63588;BMP280;49966;46.896;18.004;2023-07-13T12:41:41;100331.31;;;29.93
63588;BMP280;49966;46.896;18.004;2023-07-13T12:44:16;100314.03;;;30.07
63588;BMP280;49966;46.896;18.004;2023-07-13T12:46:57;100332.72;;;30.14
63588;BMP280;49966;46.896;18.004;2023-07-13T12:49:30;100339.13;;;30.06
63588;BMP280;49966;46.896;18.004;2023-07-13T12:52:04;100332.44;;;29.81
63588;BMP280;49966;46.896;18.004;2023-07-13T12:54:39;100341.25;;;29.64
63588;BMP280;49966;46.896;18.004;2023-07-13T12:57:21;100323.81;;;29.88
63588;BMP280;49966;46.896;18.004;2023-07-13T12:59:53;100314.19;;;29.66
63588;BMP280;49966;46.896;18.004;2023-07-13T13:02:29;100313.09;;;29.58
63588;BMP280;49966;46.896;18.004;2023-07-13T13:04:58;100316.56;;;29.59
63588;BMP280;49966;46.896;18.004;2023-07-13T13:07:27;100323.09;;;29.41
63588;BMP280;49966;46.896;18.004;2023-07-13T13:09:56;100337.38;;;29.51
63588;BMP280;49966;46.896;18.004;2023-07-13T13:12:25;100333.47;;;29.57
63588;BMP280;49966;46.896;18.004;2023-07-13T13:14:55;100324.25;;;29.55
63588;BMP280;49966;46.896;18.004;2023-07-13T13:17:26;100310.31;;;29.53
63588;BMP280;49966;46.896;18.004;2023-07-13T13:19:56;100310.53;;;29.49
63588;BMP280;49966;46.896;18.004;2023-07-13T13:22:24;100306.69;;;29.61
63588;BMP280;49966;46.896;18.004;2023-07-13T13:24:53;100296.88;;;29.49
63588;BMP280;49966;46.896;18.004;2023-07-13T13:27:22;100296.56;;;29.42
63588;BMP280;49966;46.896;18.004;2023-07-13T13:29:51;100295.94;;;29.32
63588;BMP280;49966;46.896;18.004;2023-07-13T13:32:21;100281.00;;;29.27
63588;BMP280;49966;46.896;18.004;2023-07-13T13:34:49;100292.38;;;29.26
63588;BMP280;49966;46.896;18.004;2023-07-13T13:37:20;100285.91;;;29.03
63588;BMP280;49966;46.896;18.004;2023-07-13T13:39:49;100293.94;;;28.86
63588;BMP280;49966;46.896;18.004;2023-07-13T13:42:38;100279.94;;;28.78
63588;BMP280;49966;46.896;18.004;2023-07-13T13:45:08;100283.53;;;28.70
63588;BMP280;49966;46.896;18.004;2023-07-13T13:47:39;100294.06;;;28.62
63588;BMP280;49966;46.896;18.004;2023-07-13T13:50:12;100290.47;;;28.51
63588;BMP280;49966;46.896;18.004;2023-07-13T13:52:42;100294.53;;;28.40
63588;BMP280;49966;46.896;18.004;2023-07-13T13:55:14;100298.78;;;28.27
63588;BMP280;49966;46.896;18.004;2023-07-13T13:57:43;100303.69;;;28.08
63588;BMP280;49966;46.896;18.004;2023-07-13T14:00:12;100309.16;;;27.93
63588;BMP280;49966;46.896;18.004;2023-07-13T14:02:45;100309.41;;;27.80
63588;BMP280;49966;46.896;18.004;2023-07-13T14:05:17;100324.16;;;27.74
63588;BMP280;49966;46.896;18.004;2023-07-13T14:07:47;100328.16;;;27.64
63588;BMP280;49966;46.896;18.004;2023-07-13T14:10:17;100344.94;;;27.47
63588;BMP280;49966;46.896;18.004;2023-07-13T14:12:48;100362.34;;;27.26
63588;BMP280;49966;46.896;18.004;2023-07-13T14:15:21;100356.50;;;27.18
63588;BMP280;49966;46.896;18.004;2023-07-13T14:17:51;100365.03;;;27.11
63588;BMP280;49966;46.896;18.004;2023-07-13T14:20:22;100371.97;;;27.03